sensor_id;sensor_type;location;lat;lon;timestamp;P1;durP1;ratioP1;P2;durP2;ratioP2
8407;SDS011;4241;48.452;9.216;2023-02-18T00:01:32;454.40;;;146.27;;
8407;SDS011;4241;48.452;9.216;2023-02-18T00:03:59;452.70;;;146.07;;
8407;SDS011;4241;48.452;9.216;2023-02-18T00:06:27;454.47;;;147.87;;
8407;SDS011;4241;48.452;9.216;2023-02-18T00:08:58;454.30;;;148.07;;
8407;SDS011;4241;48.452;9.216;2023-02-18T00:11:26;453.53;;;146.20;;
8407;SDS011;4241;48.452;9.216;2023-02-18T00:13:54;451.13;;;145.43;;
8407;SDS011;4241;48.452;9.216;2023-02-18T00:16:23;455.03;;;147.73;;
8407;SDS011;4241;48.452;9.216;2023-02-18T00:18:53;456.37;;;148.23;;
8407;SDS011;4241;48.452;9.216;2023-02-18T00:21:21;455.37;;;148.03;;
8407;SDS011;4241;48.452;9.216;2023-02-18T00:23:48;455.70;;;148.23;;
8407;SDS011;4241;48.452;9.216;2023-02-18T00:26:16;452.57;;;146.40;;
8407;SDS011;4241;48.452;9.216;2023-02-18T00:28:44;452.60;;;145.23;;
8407;SDS011;4241;48.452;9.216;2023-02-18T00:31:13;454.40;;;148.53;;
8407;SDS011;4241;48.452;9.216;2023-02-18T00:33:40;454.07;;;146.57;;
8407;SDS011;4241;48.452;9.216;2023-02-18T00:36:08;456.33;;;149.10;;
8407;SDS011;4241;48.452;9.216;2023-02-18T00:38:37;454.03;;;148.07;;
8407;SDS011;4241;48.452;9.216;2023-02-18T00:41:04;449.00;;;144.87;;
8407;SDS011;4241;48.452;9.216;2023-02-18T00:43:32;451.93;;;145.77;;
8407;SDS011;4241;48.452;9.216;2023-02-18T00:45:59;453.00;;;147.13;;
8407;SDS011;4241;48.452;9.216;2023-02-18T00:48:26;453.17;;;146.67;;
8407;SDS011;4241;48.452;9.216;2023-02-18T00:50:53;454.63;;;149.27;;
8407;SDS011;4241;48.452;9.216;2023-02-18T00:53:21;454.23;;;148.10;;
8407;SDS011;4241;48.452;9.216;2023-02-18T00:55:48;458.63;;;152.57;;
8407;SDS011;4241;48.452;9.216;2023-02-18T00:58:15;452.17;;;144.97;;
8407;SDS011;4241;48.452;9.216;2023-02-18T01:00:43;451.10;;;144.73;;
8407;SDS011;4241;48.452;9.216;2023-02-18T01:03:10;451.37;;;144.97;;
8407;SDS011;4241;48.452;9.216;2023-02-18T01:05:40;455.00;;;147.87;;
8407;SDS011;4241;48.452;9.216;2023-02-18T01:08:08;451.97;;;147.97;;
8407;SDS011;4241;48.452;9.216;2023-02-18T01:10:36;451.97;;;145.83;;
8407;SDS011;4241;48.452;9.216;2023-02-18T01:13:06;455.20;;;148.43;;
8407;SDS011;4241;48.452;9.216;2023-02-18T01:15:33;453.53;;;145.53;;
8407;SDS011;4241;48.452;9.216;2023-02-18T01:18:02;452.30;;;145.93;;
8407;SDS011;4241;48.452;9.216;2023-02-18T01:20:29;451.73;;;145.00;;
8407;SDS011;4241;48.452;9.216;2023-02-18T01:22:56;453.07;;;145.13;;
8407;SDS011;4241;48.452;9.216;2023-02-18T01:25:23;453.63;;;146.90;;
8407;SDS011;4241;48.452;9.216;2023-02-18T01:27:50;451.27;;;145.73;;
8407;SDS011;4241;48.452;9.216;2023-02-18T01:30:17;458.40;;;152.13;;
8407;SDS011;4241;48.452;9.216;2023-02-18T01:32:44;450.53;;;145.20;;
8407;SDS011;4241;48.452;9.216;2023-02-18T01:35:13;453.00;;;147.23;;
8407;SDS011;4241;48.452;9.216;2023-02-18T01:37:41;452.97;;;147.50;;
8407;SDS011;4241;48.452;9.216;2023-02-18T01:40:09;452.27;;;145.97;;
8407;SDS011;4241;48.452;9.216;2023-02-18T01:42:37;454.77;;;148.07;;
8407;SDS011;4241;48.452;9.216;2023-02-18T01:45:34;453.07;;;146.90;;
8407;SDS011;4241;48.452;9.216;2023-02-18T01:48:13;452.70;;;147.03;;
8407;SDS011;4241;48.452;9.216;2023-02-18T01:50:45;451.07;;;143.97;;
8407;SDS011;4241;48.452;9.216;2023-02-18T01:53:16;454.03;;;148.33;;
8407;SDS011;4241;48.452;9.216;2023-02-18T01:55:46;460.30;;;152.90;;
8407;SDS011;4241;48.452;9.216;2023-02-18T01:58:14;445.80;;;140.03;;
8407;SDS011;4241;48.452;9.216;2023-02-18T02:00:41;451.93;;;145.27;;
8407;SDS011;4241;48.452;9.216;2023-02-18T02:03:08;452.03;;;145.67;;
8407;SDS011;4241;48.452;9.216;2023-02-18T02:05:35;453.63;;;147.13;;
8407;SDS011;4241;48.452;9.216;2023-02-18T02:08:04;453.90;;;146.50;;
8407;SDS011;4241;48.452;9.216;2023-02-18T02:10:34;451.87;;;144.73;;
8407;SDS011;4241;48.452;9.216;2023-02-18T02:13:11;453.23;;;146.10;;
8407;SDS011;4241;48.452;9.216;2023-02-18T02:15:46;449.30;;;143.30;;
8407;SDS011;4241;48.452;9.216;2023-02-18T02:18:27;452.10;;;144.90;;
8407;SDS011;4241;48.452;9.216;2023-02-18T02:27:20;449.83;;;142.57;;
8407;SDS011;4241;48.452;9.216;2023-02-18T02:33:12;450.93;;;143.67;;
8407;SDS011;4241;48.452;9.216;2023-02-18T02:36:03;449.33;;;141.93;;
8407;SDS011;4241;48.452;9.216;2023-02-18T02:38:38;449.10;;;142.43;;
8407;SDS011;4241;48.452;9.216;2023-02-18T02:41:12;450.00;;;142.43;;
8407;SDS011;4241;48.452;9.216;2023-02-18T02:43:50;451.70;;;144.93;;
8407;SDS011;4241;48.452;9.216;2023-02-18T02:46:22;449.67;;;142.87;;
8407;SDS011;4241;48.452;9.216;2023-02-18T02:48:57;449.20;;;144.20;;
8407;SDS011;4241;48.452;9.216;2023-02-18T02:51:36;451.90;;;145.60;;
8407;SDS011;4241;48.452;9.216;2023-02-18T02:54:10;449.17;;;144.33;;
8407;SDS011;4241;48.452;9.216;2023-02-18T02:56:40;456.53;;;149.13;;
8407;SDS011;4241;48.452;9.216;2023-02-18T02:59:07;452.80;;;146.30;;
8407;SDS011;4241;48.452;9.216;2023-02-18T03:01:40;452.87;;;145.00;;
8407;SDS011;4241;48.452;9.216;2023-02-18T03:04:25;448.80;;;142.67;;
8407;SDS011;4241;48.452;9.216;2023-02-18T03:10:17;443.20;;;138.00;;
8407;SDS011;4241;48.452;9.216;2023-02-18T03:12:56;447.70;;;142.07;;
8407;SDS011;4241;48.452;9.216;2023-02-18T03:15:32;450.93;;;143.77;;
8407;SDS011;4241;48.452;9.216;2023-02-18T03:18:04;451.17;;;145.17;;
8407;SDS011;4241;48.452;9.216;2023-02-18T03:20:39;452.87;;;144.87;;
8407;SDS011;4241;48.452;9.216;2023-02-18T03:23:13;449.63;;;143.57;;
8407;SDS011;4241;48.452;9.216;2023-02-18T03:25:44;460.53;;;153.97;;
8407;SDS011;4241;48.452;9.216;2023-02-18T03:28:12;451.83;;;144.73;;
8407;SDS011;4241;48.452;9.216;2023-02-18T03:30:42;447.43;;;142.90;;
8407;SDS011;4241;48.452;9.216;2023-02-18T03:33:14;448.93;;;143.50;;
8407;SDS011;4241;48.452;9.216;2023-02-18T03:35:43;458.20;;;152.23;;
8407;SDS011;4241;48.452;9.216;2023-02-18T03:38:13;452.40;;;145.17;;
8407;SDS011;4241;48.452;9.216;2023-02-18T03:40:45;438.97;;;133.63;;
8407;SDS011;4241;48.452;9.216;2023-02-18T03:43:12;439.63;;;134.87;;
8407;SDS011;4241;48.452;9.216;2023-02-18T03:45:39;444.97;;;138.87;;
8407;SDS011;4241;48.452;9.216;2023-02-18T03:48:06;437.17;;;132.17;;
8407;SDS011;4241;48.452;9.216;2023-02-18T03:50:33;436.77;;;131.97;;
8407;SDS011;4241;48.452;9.216;2023-02-18T03:53:00;437.50;;;131.87;;
8407;SDS011;4241;48.452;9.216;2023-02-18T03:55:27;438.77;;;134.10;;
8407;SDS011;4241;48.452;9.216;2023-02-18T03:57:55;437.43;;;133.60;;
8407;SDS011;4241;48.452;9.216;2023-02-18T04:00:22;439.73;;;133.90;;
8407;SDS011;4241;48.452;9.216;2023-02-18T04:02:48;437.23;;;132.67;;
8407;SDS011;4241;48.452;9.216;2023-02-18T04:05:15;437.63;;;131.67;;
8407;SDS011;4241;48.452;9.216;2023-02-18T04:07:42;436.90;;;132.50;;
8407;SDS011;4241;48.452;9.216;2023-02-18T04:10:09;437.80;;;134.07;;
8407;SDS011;4241;48.452;9.216;2023-02-18T04:12:36;437.53;;;132.80;;
8407;SDS011;4241;48.452;9.216;2023-02-18T04:15:04;437.40;;;132.77;;
8407;SDS011;4241;48.452;9.216;2023-02-18T04:17:32;436.73;;;133.47;;
8407;SDS011;4241;48.452;9.216;2023-02-18T04:19:59;436.80;;;132.83;;
8407;SDS011;4241;48.452;9.216;2023-02-18T04:22:25;436.10;;;131.90;;
8407;SDS011;4241;48.452;9.216;2023-02-18T04:24:52;437.70;;;133.93;;
8407;SDS011;4241;48.452;9.216;2023-02-18T04:27:19;437.63;;;132.13;;
8407;SDS011;4241;48.452;9.216;2023-02-18T04:29:46;438.80;;;133.57;;
8407;SDS011;4241;48.452;9.216;2023-02-18T04:32:14;436.70;;;131.37;;
8407;SDS011;4241;48.452;9.216;2023-02-18T04:34:41;438.37;;;133.50;;
8407;SDS011;4241;48.452;9.216;2023-02-18T04:37:08;436.77;;;132.57;;
8407;SDS011;4241;48.452;9.216;2023-02-18T04:39:34;437.23;;;131.43;;
8407;SDS011;4241;48.452;9.216;2023-02-18T04:42:01;435.37;;;130.93;;
8407;SDS011;4241;48.452;9.216;2023-02-18T04:44:32;435.10;;;130.93;;
8407;SDS011;4241;48.452;9.216;2023-02-18T04:46:59;435.90;;;130.97;;
8407;SDS011;4241;48.452;9.216;2023-02-18T04:49:27;435.70;;;132.27;;
8407;SDS011;4241;48.452;9.216;2023-02-18T04:51:54;437.70;;;132.53;;
8407;SDS011;4241;48.452;9.216;2023-02-18T04:54:21;435.47;;;131.43;;
8407;SDS011;4241;48.452;9.216;2023-02-18T04:56:48;437.50;;;131.07;;
8407;SDS011;4241;48.452;9.216;2023-02-18T04:59:15;436.13;;;132.03;;
8407;SDS011;4241;48.452;9.216;2023-02-18T05:01:42;436.37;;;130.07;;
8407;SDS011;4241;48.452;9.216;2023-02-18T05:04:09;436.70;;;131.97;;
8407;SDS011;4241;48.452;9.216;2023-02-18T05:06:37;438.67;;;133.90;;
8407;SDS011;4241;48.452;9.216;2023-02-18T05:09:07;436.00;;;132.17;;
8407;SDS011;4241;48.452;9.216;2023-02-18T05:11:34;436.27;;;130.60;;
8407;SDS011;4241;48.452;9.216;2023-02-18T05:14:01;435.97;;;131.47;;
8407;SDS011;4241;48.452;9.216;2023-02-18T05:16:28;436.17;;;131.57;;
8407;SDS011;4241;48.452;9.216;2023-02-18T05:18:54;436.47;;;130.83;;
8407;SDS011;4241;48.452;9.216;2023-02-18T05:21:21;435.87;;;131.33;;
8407;SDS011;4241;48.452;9.216;2023-02-18T05:23:49;436.47;;;132.30;;
8407;SDS011;4241;48.452;9.216;2023-02-18T05:26:16;438.73;;;133.67;;
8407;SDS011;4241;48.452;9.216;2023-02-18T05:28:43;436.67;;;132.17;;
8407;SDS011;4241;48.452;9.216;2023-02-18T05:31:10;438.80;;;134.27;;
8407;SDS011;4241;48.452;9.216;2023-02-18T05:33:36;436.13;;;131.60;;
8407;SDS011;4241;48.452;9.216;2023-02-18T05:36:03;437.70;;;133.07;;
8407;SDS011;4241;48.452;9.216;2023-02-18T05:38:31;437.40;;;133.63;;
8407;SDS011;4241;48.452;9.216;2023-02-18T05:40:59;438.20;;;134.27;;
8407;SDS011;4241;48.452;9.216;2023-02-18T05:43:26;438.00;;;132.73;;
8407;SDS011;4241;48.452;9.216;2023-02-18T05:45:53;442.83;;;137.13;;
8407;SDS011;4241;48.452;9.216;2023-02-18T05:48:20;440.57;;;134.80;;
8407;SDS011;4241;48.452;9.216;2023-02-18T05:50:46;438.03;;;134.20;;
8407;SDS011;4241;48.452;9.216;2023-02-18T05:53:17;438.03;;;134.00;;
8407;SDS011;4241;48.452;9.216;2023-02-18T05:55:44;446.27;;;140.50;;
8407;SDS011;4241;48.452;9.216;2023-02-18T05:58:12;439.07;;;134.50;;
8407;SDS011;4241;48.452;9.216;2023-02-18T06:00:41;440.70;;;136.33;;
8407;SDS011;4241;48.452;9.216;2023-02-18T06:03:07;443.67;;;139.57;;
8407;SDS011;4241;48.452;9.216;2023-02-18T06:05:34;440.47;;;135.47;;
8407;SDS011;4241;48.452;9.216;2023-02-18T06:08:01;440.90;;;135.73;;
8407;SDS011;4241;48.452;9.216;2023-02-18T06:10:28;439.30;;;135.47;;
8407;SDS011;4241;48.452;9.216;2023-02-18T06:12:57;438.50;;;133.43;;
8407;SDS011;4241;48.452;9.216;2023-02-18T06:15:27;444.20;;;139.50;;
8407;SDS011;4241;48.452;9.216;2023-02-18T06:17:54;439.63;;;135.33;;
8407;SDS011;4241;48.452;9.216;2023-02-18T06:20:21;439.87;;;135.90;;
8407;SDS011;4241;48.452;9.216;2023-02-18T06:22:48;440.07;;;134.73;;
8407;SDS011;4241;48.452;9.216;2023-02-18T06:25:14;438.80;;;134.27;;
8407;SDS011;4241;48.452;9.216;2023-02-18T06:27:41;446.70;;;141.27;;
8407;SDS011;4241;48.452;9.216;2023-02-18T06:30:08;437.40;;;130.73;;
8407;SDS011;4241;48.452;9.216;2023-02-18T06:32:37;438.50;;;135.50;;
8407;SDS011;4241;48.452;9.216;2023-02-18T06:35:04;439.83;;;135.13;;
8407;SDS011;4241;48.452;9.216;2023-02-18T06:37:31;438.80;;;134.37;;
8407;SDS011;4241;48.452;9.216;2023-02-18T06:39:58;445.67;;;139.80;;
8407;SDS011;4241;48.452;9.216;2023-02-18T06:42:25;443.60;;;138.53;;
8407;SDS011;4241;48.452;9.216;2023-02-18T06:44:52;439.30;;;135.03;;
8407;SDS011;4241;48.452;9.216;2023-02-18T06:47:18;440.33;;;136.17;;
8407;SDS011;4241;48.452;9.216;2023-02-18T06:49:46;439.63;;;133.77;;
8407;SDS011;4241;48.452;9.216;2023-02-18T06:52:13;440.53;;;135.57;;
8407;SDS011;4241;48.452;9.216;2023-02-18T06:54:40;441.03;;;135.67;;
8407;SDS011;4241;48.452;9.216;2023-02-18T06:57:07;442.33;;;136.60;;
8407;SDS011;4241;48.452;9.216;2023-02-18T06:59:34;440.53;;;135.67;;
8407;SDS011;4241;48.452;9.216;2023-02-18T07:02:00;445.83;;;140.13;;
8407;SDS011;4241;48.452;9.216;2023-02-18T07:04:36;442.90;;;138.37;;
8407;SDS011;4241;48.452;9.216;2023-02-18T07:07:05;446.43;;;140.17;;
8407;SDS011;4241;48.452;9.216;2023-02-18T07:09:31;444.77;;;140.37;;
8407;SDS011;4241;48.452;9.216;2023-02-18T07:11:58;445.10;;;140.00;;
8407;SDS011;4241;48.452;9.216;2023-02-18T07:14:25;444.40;;;139.03;;
8407;SDS011;4241;48.452;9.216;2023-02-18T07:16:52;446.33;;;139.00;;
8407;SDS011;4241;48.452;9.216;2023-02-18T07:19:19;444.27;;;140.17;;
8407;SDS011;4241;48.452;9.216;2023-02-18T07:21:46;445.73;;;140.53;;
8407;SDS011;4241;48.452;9.216;2023-02-18T07:24:14;442.53;;;137.53;;
8407;SDS011;4241;48.452;9.216;2023-02-18T07:26:41;448.07;;;141.47;;
8407;SDS011;4241;48.452;9.216;2023-02-18T07:29:07;442.43;;;136.90;;
8407;SDS011;4241;48.452;9.216;2023-02-18T07:31:34;445.37;;;140.63;;
8407;SDS011;4241;48.452;9.216;2023-02-18T07:34:02;445.33;;;140.33;;
8407;SDS011;4241;48.452;9.216;2023-02-18T07:36:29;447.70;;;142.40;;
8407;SDS011;4241;48.452;9.216;2023-02-18T07:38:56;444.50;;;138.93;;
8407;SDS011;4241;48.452;9.216;2023-02-18T07:41:24;442.47;;;137.53;;
8407;SDS011;4241;48.452;9.216;2023-02-18T07:43:51;447.43;;;141.80;;
8407;SDS011;4241;48.452;9.216;2023-02-18T07:46:17;448.93;;;144.47;;
8407;SDS011;4241;48.452;9.216;2023-02-18T07:48:44;443.50;;;139.57;;
8407;SDS011;4241;48.452;9.216;2023-02-18T07:51:11;442.87;;;138.57;;
8407;SDS011;4241;48.452;9.216;2023-02-18T07:53:38;446.60;;;141.73;;
8407;SDS011;4241;48.452;9.216;2023-02-18T07:56:06;442.23;;;138.43;;
8407;SDS011;4241;48.452;9.216;2023-02-18T07:58:35;443.13;;;139.10;;
8407;SDS011;4241;48.452;9.216;2023-02-18T08:01:03;442.03;;;138.07;;
8407;SDS011;4241;48.452;9.216;2023-02-18T08:03:32;444.37;;;140.10;;
8407;SDS011;4241;48.452;9.216;2023-02-18T08:05:59;446.33;;;142.47;;
8407;SDS011;4241;48.452;9.216;2023-02-18T08:08:28;444.47;;;139.77;;
8407;SDS011;4241;48.452;9.216;2023-02-18T08:10:56;443.63;;;140.37;;
8407;SDS011;4241;48.452;9.216;2023-02-18T08:13:25;444.97;;;140.70;;
8407;SDS011;4241;48.452;9.216;2023-02-18T08:15:54;450.87;;;146.50;;
8407;SDS011;4241;48.452;9.216;2023-02-18T08:18:22;445.07;;;141.37;;
8407;SDS011;4241;48.452;9.216;2023-02-18T08:20:50;446.23;;;142.47;;
8407;SDS011;4241;48.452;9.216;2023-02-18T08:23:17;445.83;;;141.23;;
8407;SDS011;4241;48.452;9.216;2023-02-18T08:25:45;454.27;;;149.50;;
8407;SDS011;4241;48.452;9.216;2023-02-18T08:28:13;445.37;;;141.27;;
8407;SDS011;4241;48.452;9.216;2023-02-18T08:30:43;447.03;;;142.30;;
8407;SDS011;4241;48.452;9.216;2023-02-18T08:33:11;445.23;;;141.17;;
8407;SDS011;4241;48.452;9.216;2023-02-18T08:35:38;448.60;;;143.03;;
8407;SDS011;4241;48.452;9.216;2023-02-18T08:38:06;445.90;;;140.87;;
8407;SDS011;4241;48.452;9.216;2023-02-18T08:40:32;446.30;;;142.80;;
8407;SDS011;4241;48.452;9.216;2023-02-18T08:42:59;444.63;;;140.37;;
8407;SDS011;4241;48.452;9.216;2023-02-18T08:45:26;447.87;;;143.50;;
8407;SDS011;4241;48.452;9.216;2023-02-18T08:47:53;446.43;;;141.73;;
8407;SDS011;4241;48.452;9.216;2023-02-18T08:50:21;448.87;;;143.03;;
8407;SDS011;4241;48.452;9.216;2023-02-18T08:52:50;445.90;;;141.83;;
8407;SDS011;4241;48.452;9.216;2023-02-18T08:55:17;444.93;;;140.37;;
8407;SDS011;4241;48.452;9.216;2023-02-18T08:57:45;445.00;;;141.17;;
8407;SDS011;4241;48.452;9.216;2023-02-18T09:00:12;445.97;;;142.40;;
8407;SDS011;4241;48.452;9.216;2023-02-18T09:02:40;446.33;;;143.73;;
8407;SDS011;4241;48.452;9.216;2023-02-18T09:05:07;446.27;;;141.40;;
8407;SDS011;4241;48.452;9.216;2023-02-18T09:07:35;446.33;;;143.13;;
8407;SDS011;4241;48.452;9.216;2023-02-18T09:10:03;450.67;;;146.50;;
8407;SDS011;4241;48.452;9.216;2023-02-18T09:12:30;446.53;;;142.53;;
8407;SDS011;4241;48.452;9.216;2023-02-18T09:14:57;448.10;;;144.77;;
8407;SDS011;4241;48.452;9.216;2023-02-18T09:17:24;446.13;;;141.87;;
8407;SDS011;4241;48.452;9.216;2023-02-18T09:19:51;446.03;;;141.43;;
8407;SDS011;4241;48.452;9.216;2023-02-18T09:22:18;446.93;;;142.43;;
8407;SDS011;4241;48.452;9.216;2023-02-18T09:24:47;446.70;;;142.37;;
8407;SDS011;4241;48.452;9.216;2023-02-18T09:27:13;447.13;;;143.13;;
8407;SDS011;4241;48.452;9.216;2023-02-18T09:29:40;451.00;;;145.57;;
8407;SDS011;4241;48.452;9.216;2023-02-18T09:32:08;449.23;;;144.37;;
8407;SDS011;4241;48.452;9.216;2023-02-18T09:34:36;447.43;;;141.20;;
8407;SDS011;4241;48.452;9.216;2023-02-18T09:37:03;447.13;;;143.03;;
8407;SDS011;4241;48.452;9.216;2023-02-18T09:39:30;446.27;;;142.90;;
8407;SDS011;4241;48.452;9.216;2023-02-18T09:41:59;457.50;;;153.77;;
8407;SDS011;4241;48.452;9.216;2023-02-18T09:44:29;445.60;;;140.63;;
8407;SDS011;4241;48.452;9.216;2023-02-18T09:47:01;447.07;;;142.20;;
8407;SDS011;4241;48.452;9.216;2023-02-18T09:49:31;448.27;;;144.13;;
8407;SDS011;4241;48.452;9.216;2023-02-18T09:52:05;447.23;;;142.90;;
8407;SDS011;4241;48.452;9.216;2023-02-18T09:54:37;445.70;;;141.83;;
8407;SDS011;4241;48.452;9.216;2023-02-18T09:57:05;448.43;;;144.03;;
8407;SDS011;4241;48.452;9.216;2023-02-18T09:59:40;449.47;;;143.50;;
8407;SDS011;4241;48.452;9.216;2023-02-18T10:02:09;449.70;;;145.13;;
8407;SDS011;4241;48.452;9.216;2023-02-18T10:04:42;449.20;;;145.97;;
8407;SDS011;4241;48.452;9.216;2023-02-18T10:07:15;449.63;;;144.87;;
8407;SDS011;4241;48.452;9.216;2023-02-18T10:09:46;448.53;;;145.27;;
8407;SDS011;4241;48.452;9.216;2023-02-18T10:12:18;449.27;;;145.43;;
8407;SDS011;4241;48.452;9.216;2023-02-18T10:14:47;449.53;;;145.40;;
8407;SDS011;4241;48.452;9.216;2023-02-18T10:17:16;453.70;;;149.70;;
8407;SDS011;4241;48.452;9.216;2023-02-18T10:19:44;448.97;;;145.60;;
8407;SDS011;4241;48.452;9.216;2023-02-18T10:22:13;450.23;;;146.40;;
8407;SDS011;4241;48.452;9.216;2023-02-18T10:24:42;449.60;;;147.30;;
8407;SDS011;4241;48.452;9.216;2023-02-18T10:27:15;452.13;;;146.90;;
8407;SDS011;4241;48.452;9.216;2023-02-18T10:29:49;453.73;;;149.47;;
8407;SDS011;4241;48.452;9.216;2023-02-18T10:32:18;450.23;;;148.10;;
8407;SDS011;4241;48.452;9.216;2023-02-18T10:34:48;449.10;;;147.07;;
8407;SDS011;4241;48.452;9.216;2023-02-18T10:37:27;450.47;;;147.63;;
8407;SDS011;4241;48.452;9.216;2023-02-18T10:40:12;449.73;;;146.83;;
8407;SDS011;4241;48.452;9.216;2023-02-18T10:42:48;450.27;;;146.27;;
8407;SDS011;4241;48.452;9.216;2023-02-18T10:45:27;450.90;;;147.17;;
8407;SDS011;4241;48.452;9.216;2023-02-18T10:48:08;447.87;;;144.83;;
8407;SDS011;4241;48.452;9.216;2023-02-18T10:50:47;448.43;;;145.13;;
8407;SDS011;4241;48.452;9.216;2023-02-18T10:53:16;447.87;;;145.37;;
8407;SDS011;4241;48.452;9.216;2023-02-18T10:55:50;455.10;;;152.07;;
8407;SDS011;4241;48.452;9.216;2023-02-18T10:58:31;450.17;;;148.43;;
8407;SDS011;4241;48.452;9.216;2023-02-18T11:00:59;451.37;;;147.83;;
8407;SDS011;4241;48.452;9.216;2023-02-18T11:03:37;450.97;;;147.70;;
8407;SDS011;4241;48.452;9.216;2023-02-18T11:06:14;448.67;;;146.77;;
8407;SDS011;4241;48.452;9.216;2023-02-18T11:08:44;450.77;;;148.00;;
8407;SDS011;4241;48.452;9.216;2023-02-18T11:11:13;451.70;;;147.50;;
8407;SDS011;4241;48.452;9.216;2023-02-18T11:13:44;449.80;;;146.60;;
8407;SDS011;4241;48.452;9.216;2023-02-18T11:16:17;449.50;;;146.23;;
8407;SDS011;4241;48.452;9.216;2023-02-18T11:18:47;450.30;;;146.20;;
8407;SDS011;4241;48.452;9.216;2023-02-18T11:21:23;453.77;;;149.93;;
8407;SDS011;4241;48.452;9.216;2023-02-18T11:23:54;454.30;;;151.70;;
8407;SDS011;4241;48.452;9.216;2023-02-18T11:26:24;452.77;;;148.03;;
8407;SDS011;4241;48.452;9.216;2023-02-18T11:28:57;458.37;;;153.67;;
8407;SDS011;4241;48.452;9.216;2023-02-18T11:31:33;451.37;;;148.40;;
8407;SDS011;4241;48.452;9.216;2023-02-18T11:34:09;450.63;;;146.77;;
8407;SDS011;4241;48.452;9.216;2023-02-18T11:36:40;452.33;;;148.43;;
8407;SDS011;4241;48.452;9.216;2023-02-18T11:39:13;447.73;;;144.10;;
8407;SDS011;4241;48.452;9.216;2023-02-18T11:41:45;450.00;;;144.80;;
8407;SDS011;4241;48.452;9.216;2023-02-18T11:44:20;452.53;;;149.93;;
8407;SDS011;4241;48.452;9.216;2023-02-18T11:46:56;449.63;;;146.90;;
8407;SDS011;4241;48.452;9.216;2023-02-18T11:49:25;450.50;;;146.57;;
8407;SDS011;4241;48.452;9.216;2023-02-18T11:51:53;449.60;;;146.33;;
8407;SDS011;4241;48.452;9.216;2023-02-18T11:54:28;455.70;;;151.27;;
8407;SDS011;4241;48.452;9.216;2023-02-18T11:56:56;455.40;;;150.07;;
8407;SDS011;4241;48.452;9.216;2023-02-18T11:59:28;452.90;;;147.57;;
8407;SDS011;4241;48.452;9.216;2023-02-18T12:02:00;452.23;;;147.10;;
8407;SDS011;4241;48.452;9.216;2023-02-18T12:04:32;449.47;;;146.03;;
8407;SDS011;4241;48.452;9.216;2023-02-18T12:07:11;447.27;;;141.57;;
8407;SDS011;4241;48.452;9.216;2023-02-18T12:09:45;449.47;;;146.60;;
8407;SDS011;4241;48.452;9.216;2023-02-18T12:12:15;448.27;;;145.23;;
8407;SDS011;4241;48.452;9.216;2023-02-18T12:14:46;447.40;;;144.03;;
8407;SDS011;4241;48.452;9.216;2023-02-18T12:17:16;446.07;;;142.20;;
8407;SDS011;4241;48.452;9.216;2023-02-18T12:20:18;447.67;;;142.83;;
8407;SDS011;4241;48.452;9.216;2023-02-18T12:22:55;445.63;;;141.93;;
8407;SDS011;4241;48.452;9.216;2023-02-18T12:25:34;447.47;;;144.33;;
8407;SDS011;4241;48.452;9.216;2023-02-18T12:28:11;448.80;;;145.03;;
8407;SDS011;4241;48.452;9.216;2023-02-18T12:31:01;448.23;;;145.47;;
8407;SDS011;4241;48.452;9.216;2023-02-18T12:33:37;445.57;;;142.60;;
8407;SDS011;4241;48.452;9.216;2023-02-18T12:36:15;445.53;;;141.60;;
8407;SDS011;4241;48.452;9.216;2023-02-18T12:38:53;449.00;;;144.63;;
8407;SDS011;4241;48.452;9.216;2023-02-18T12:41:38;449.47;;;145.63;;
8407;SDS011;4241;48.452;9.216;2023-02-18T12:44:31;459.40;;;154.73;;
8407;SDS011;4241;48.452;9.216;2023-02-18T12:47:12;451.47;;;148.33;;
8407;SDS011;4241;48.452;9.216;2023-02-18T12:50:01;446.60;;;143.07;;
8407;SDS011;4241;48.452;9.216;2023-02-18T12:52:40;456.13;;;153.20;;
8407;SDS011;4241;48.452;9.216;2023-02-18T12:55:19;449.17;;;144.97;;
8407;SDS011;4241;48.452;9.216;2023-02-18T12:57:58;447.90;;;144.67;;
8407;SDS011;4241;48.452;9.216;2023-02-18T13:00:44;447.77;;;144.30;;
8407;SDS011;4241;48.452;9.216;2023-02-18T13:06:36;447.07;;;143.47;;
8407;SDS011;4241;48.452;9.216;2023-02-18T13:09:14;449.33;;;146.30;;
8407;SDS011;4241;48.452;9.216;2023-02-18T13:11:53;449.30;;;145.53;;
8407;SDS011;4241;48.452;9.216;2023-02-18T13:14:29;448.23;;;145.43;;
8407;SDS011;4241;48.452;9.216;2023-02-18T13:16:59;447.50;;;145.23;;
8407;SDS011;4241;48.452;9.216;2023-02-18T13:19:28;470.30;;;161.70;;
8407;SDS011;4241;48.452;9.216;2023-02-18T13:22:01;453.30;;;149.63;;
8407;SDS011;4241;48.452;9.216;2023-02-18T13:24:32;447.97;;;144.10;;
8407;SDS011;4241;48.452;9.216;2023-02-18T13:27:03;447.87;;;143.57;;
8407;SDS011;4241;48.452;9.216;2023-02-18T13:29:38;445.80;;;142.07;;
8407;SDS011;4241;48.452;9.216;2023-02-18T13:32:11;446.17;;;142.43;;
8407;SDS011;4241;48.452;9.216;2023-02-18T13:34:47;467.67;;;164.07;;
8407;SDS011;4241;48.452;9.216;2023-02-18T13:37:21;448.07;;;144.33;;
8407;SDS011;4241;48.452;9.216;2023-02-18T13:39:56;448.13;;;144.23;;
8407;SDS011;4241;48.452;9.216;2023-02-18T13:42:35;446.43;;;143.57;;
8407;SDS011;4241;48.452;9.216;2023-02-18T13:47:49;447.47;;;144.47;;
8407;SDS011;4241;48.452;9.216;2023-02-18T13:50:22;446.53;;;143.60;;
8407;SDS011;4241;48.452;9.216;2023-02-18T13:53:12;445.90;;;142.20;;
8407;SDS011;4241;48.452;9.216;2023-02-18T13:55:57;453.93;;;150.27;;
8407;SDS011;4241;48.452;9.216;2023-02-18T13:58:31;447.03;;;144.47;;
8407;SDS011;4241;48.452;9.216;2023-02-18T14:01:14;447.73;;;143.13;;
8407;SDS011;4241;48.452;9.216;2023-02-18T14:03:54;445.83;;;142.33;;
8407;SDS011;4241;48.452;9.216;2023-02-18T14:06:31;449.80;;;147.20;;
8407;SDS011;4241;48.452;9.216;2023-02-18T14:15:01;450.43;;;147.30;;
8407;SDS011;4241;48.452;9.216;2023-02-18T14:17:47;446.67;;;143.73;;
8407;SDS011;4241;48.452;9.216;2023-02-18T14:26:06;447.07;;;143.60;;
8407;SDS011;4241;48.452;9.216;2023-02-18T14:28:36;449.33;;;146.57;;
8407;SDS011;4241;48.452;9.216;2023-02-18T14:31:16;447.83;;;143.70;;
8407;SDS011;4241;48.452;9.216;2023-02-18T14:33:58;445.57;;;142.90;;
8407;SDS011;4241;48.452;9.216;2023-02-18T14:36:55;446.13;;;141.83;;
8407;SDS011;4241;48.452;9.216;2023-02-18T14:39:33;446.07;;;142.80;;
8407;SDS011;4241;48.452;9.216;2023-02-18T14:42:11;446.23;;;142.70;;
8407;SDS011;4241;48.452;9.216;2023-02-18T14:44:57;448.83;;;145.80;;
8407;SDS011;4241;48.452;9.216;2023-02-18T14:47:38;446.40;;;142.33;;
8407;SDS011;4241;48.452;9.216;2023-02-18T14:50:19;447.80;;;142.33;;
8407;SDS011;4241;48.452;9.216;2023-02-18T14:52:47;447.53;;;144.03;;
8407;SDS011;4241;48.452;9.216;2023-02-18T14:55:18;447.90;;;144.63;;
8407;SDS011;4241;48.452;9.216;2023-02-18T14:57:50;448.00;;;145.00;;
8407;SDS011;4241;48.452;9.216;2023-02-18T15:00:21;450.33;;;147.00;;
8407;SDS011;4241;48.452;9.216;2023-02-18T15:02:50;448.37;;;145.03;;
8407;SDS011;4241;48.452;9.216;2023-02-18T15:05:18;449.43;;;146.90;;
8407;SDS011;4241;48.452;9.216;2023-02-18T15:07:56;447.90;;;145.10;;
8407;SDS011;4241;48.452;9.216;2023-02-18T15:10:29;448.63;;;145.37;;
8407;SDS011;4241;48.452;9.216;2023-02-18T15:13:03;449.07;;;146.37;;